sensor_id;sensor_type;location;lat;lon;timestamp;temperature;humidity
9425;DHT22;17139;52.140;11.636;2023-07-29T00:01:38;18.40;61.60
9425;DHT22;17139;52.140;11.636;2023-07-29T00:04:06;18.90;62.50
9425;DHT22;17139;52.140;11.636;2023-07-29T00:06:34;18.70;61.30
9425;DHT22;17139;52.140;11.636;2023-07-29T00:09:02;18.70;62.00
9425;DHT22;17139;52.140;11.636;2023-07-29T00:11:29;18.50;61.50
9425;DHT22;17139;52.140;11.636;2023-07-29T00:13:59;18.40;61.60
9425;DHT22;17139;52.140;11.636;2023-07-29T00:16:26;18.30;61.90
9425;DHT22;17139;52.140;11.636;2023-07-29T00:18:53;18.20;61.80
9425;DHT22;17139;52.140;11.636;2023-07-29T00:21:20;18.20;62.00
9425;DHT22;17139;52.140;11.636;2023-07-29T00:23:47;18.10;62.10
9425;DHT22;17139;52.140;11.636;2023-07-29T00:26:14;18.10;62.10
9425;DHT22;17139;52.140;11.636;2023-07-29T00:28:41;18.10;62.20
9425;DHT22;17139;52.140;11.636;2023-07-29T00:31:10;18.20;62.80
9425;DHT22;17139;52.140;11.636;2023-07-29T00:33:37;18.10;62.00
9425;DHT22;17139;52.140;11.636;2023-07-29T00:36:04;18.10;62.10
9425;DHT22;17139;52.140;11.636;2023-07-29T00:38:31;18.70;62.90
9425;DHT22;17139;52.140;11.636;2023-07-29T00:40:59;18.50;61.70
9425;DHT22;17139;52.140;11.636;2023-07-29T00:43:27;18.30;62.00
9425;DHT22;17139;52.140;11.636;2023-07-29T00:45:54;18.10;62.20
9425;DHT22;17139;52.140;11.636;2023-07-29T00:48:24;18.00;62.40
9425;DHT22;17139;52.140;11.636;2023-07-29T00:50:52;18.00;62.70
9425;DHT22;17139;52.140;11.636;2023-07-29T00:53:19;17.90;62.70
9425;DHT22;17139;52.140;11.636;2023-07-29T00:55:46;17.90;62.80
9425;DHT22;17139;52.140;11.636;2023-07-29T00:58:13;17.90;62.80
9425;DHT22;17139;52.140;11.636;2023-07-29T01:00:41;18.50;63.80
9425;DHT22;17139;52.140;11.636;2023-07-29T01:03:09;18.40;62.40
9425;DHT22;17139;52.140;11.636;2023-07-29T01:05:43;18.20;62.40
9425;DHT22;17139;52.140;11.636;2023-07-29T01:08:17;18.10;62.60
9425;DHT22;17139;52.140;11.636;2023-07-29T01:10:56;18.00;62.70
9425;DHT22;17139;52.140;11.636;2023-07-29T01:13:31;18.00;62.80
9425;DHT22;17139;52.140;11.636;2023-07-29T01:16:01;17.90;62.90
9425;DHT22;17139;52.140;11.636;2023-07-29T01:18:31;17.80;62.90
9425;DHT22;17139;52.140;11.636;2023-07-29T01:21:04;17.80;63.00
9425;DHT22;17139;52.140;11.636;2023-07-29T01:23:34;17.70;63.00
9425;DHT22;17139;52.140;11.636;2023-07-29T01:26:02;17.70;63.00
9425;DHT22;17139;52.140;11.636;2023-07-29T01:28:30;17.60;63.00
9425;DHT22;17139;52.140;11.636;2023-07-29T01:31:02;17.50;63.00
9425;DHT22;17139;52.140;11.636;2023-07-29T01:36:21;17.40;63.30
9425;DHT22;17139;52.140;11.636;2023-07-29T01:38:51;17.40;63.60
9425;DHT22;17139;52.140;11.636;2023-07-29T01:41:19;17.40;63.70
9425;DHT22;17139;52.140;11.636;2023-07-29T01:43:47;17.50;63.50
9425;DHT22;17139;52.140;11.636;2023-07-29T01:46:15;17.50;63.30
9425;DHT22;17139;52.140;11.636;2023-07-29T01:48:42;17.50;63.20
9425;DHT22;17139;52.140;11.636;2023-07-29T01:51:12;17.50;63.10
9425;DHT22;17139;52.140;11.636;2023-07-29T01:53:39;17.40;63.20
9425;DHT22;17139;52.140;11.636;2023-07-29T01:56:07;17.90;64.50
9425;DHT22;17139;52.140;11.636;2023-07-29T01:58:34;17.80;63.10
9425;DHT22;17139;52.140;11.636;2023-07-29T02:01:01;17.60;63.20
9425;DHT22;17139;52.140;11.636;2023-07-29T02:03:28;17.40;63.30
9425;DHT22;17139;52.140;11.636;2023-07-29T02:05:55;17.30;63.50
9425;DHT22;17139;52.140;11.636;2023-07-29T02:08:22;17.20;63.50
9425;DHT22;17139;52.140;11.636;2023-07-29T02:10:49;17.20;63.70
9425;DHT22;17139;52.140;11.636;2023-07-29T02:13:18;17.10;63.70
9425;DHT22;17139;52.140;11.636;2023-07-29T02:15:45;17.10;64.00
9425;DHT22;17139;52.140;11.636;2023-07-29T02:18:14;17.10;64.00
9425;DHT22;17139;52.140;11.636;2023-07-29T02:20:41;17.00;64.00
9425;DHT22;17139;52.140;11.636;2023-07-29T02:23:14;17.00;64.10
9425;DHT22;17139;52.140;11.636;2023-07-29T02:25:41;17.80;65.10
9425;DHT22;17139;52.140;11.636;2023-07-29T02:28:08;17.60;63.60
9425;DHT22;17139;52.140;11.636;2023-07-29T02:30:40;17.80;64.80
9425;DHT22;17139;52.140;11.636;2023-07-29T02:33:09;17.50;63.80
9425;DHT22;17139;52.140;11.636;2023-07-29T02:35:36;17.30;64.00
9425;DHT22;17139;52.140;11.636;2023-07-29T02:38:03;17.20;64.20
9425;DHT22;17139;52.140;11.636;2023-07-29T02:40:30;17.10;64.20
9425;DHT22;17139;52.140;11.636;2023-07-29T02:42:57;17.00;64.30
9425;DHT22;17139;52.140;11.636;2023-07-29T02:45:24;16.90;64.40
9425;DHT22;17139;52.140;11.636;2023-07-29T02:47:53;16.90;64.50
9425;DHT22;17139;52.140;11.636;2023-07-29T02:50:20;16.90;64.60
9425;DHT22;17139;52.140;11.636;2023-07-29T02:52:47;17.00;65.40
9425;DHT22;17139;52.140;11.636;2023-07-29T02:55:14;17.00;64.60
9425;DHT22;17139;52.140;11.636;2023-07-29T02:57:41;17.00;64.60
9425;DHT22;17139;52.140;11.636;2023-07-29T03:00:09;17.10;65.70
9425;DHT22;17139;52.140;11.636;2023-07-29T03:02:37;17.10;64.60
9425;DHT22;17139;52.140;11.636;2023-07-29T03:05:06;17.00;64.60
9425;DHT22;17139;52.140;11.636;2023-07-29T03:07:33;17.00;64.90
9425;DHT22;17139;52.140;11.636;2023-07-29T03:10:00;17.00;64.80
9425;DHT22;17139;52.140;11.636;2023-07-29T03:12:27;17.00;64.80
9425;DHT22;17139;52.140;11.636;2023-07-29T03:14:54;17.00;64.70
9425;DHT22;17139;52.140;11.636;2023-07-29T03:17:21;17.10;64.70
9425;DHT22;17139;52.140;11.636;2023-07-29T03:19:49;17.10;64.60
9425;DHT22;17139;52.140;11.636;2023-07-29T03:22:17;17.00;64.40
9425;DHT22;17139;52.140;11.636;2023-07-29T03:24:44;17.90;65.70
9425;DHT22;17139;52.140;11.636;2023-07-29T03:27:11;17.70;64.30
9425;DHT22;17139;52.140;11.636;2023-07-29T03:29:38;17.70;65.50
9425;DHT22;17139;52.140;11.636;2023-07-29T03:32:06;17.50;64.50
9425;DHT22;17139;52.140;11.636;2023-07-29T03:34:33;17.30;64.70
9425;DHT22;17139;52.140;11.636;2023-07-29T03:37:01;17.20;64.90
9425;DHT22;17139;52.140;11.636;2023-07-29T03:39:29;17.10;65.00
9425;DHT22;17139;52.140;11.636;2023-07-29T03:41:56;17.10;65.20
9425;DHT22;17139;52.140;11.636;2023-07-29T03:44:24;17.00;65.20
9425;DHT22;17139;52.140;11.636;2023-07-29T03:46:51;17.10;65.40
9425;DHT22;17139;52.140;11.636;2023-07-29T03:49:18;17.10;65.20
9425;DHT22;17139;52.140;11.636;2023-07-29T03:51:45;17.10;65.10
9425;DHT22;17139;52.140;11.636;2023-07-29T03:54:12;17.20;65.10
9425;DHT22;17139;52.140;11.636;2023-07-29T03:56:40;17.20;65.10
9425;DHT22;17139;52.140;11.636;2023-07-29T03:59:07;17.80;66.40
9425;DHT22;17139;52.140;11.636;2023-07-29T04:01:34;17.60;64.80
9425;DHT22;17139;52.140;11.636;2023-07-29T04:04:01;17.40;64.90
9425;DHT22;17139;52.140;11.636;2023-07-29T04:06:28;17.30;65.10
9425;DHT22;17139;52.140;11.636;2023-07-29T04:08:55;17.30;65.20
9425;DHT22;17139;52.140;11.636;2023-07-29T04:11:23;17.20;65.20
9425;DHT22;17139;52.140;11.636;2023-07-29T04:13:52;17.20;65.50
9425;DHT22;17139;52.140;11.636;2023-07-29T04:16:19;17.10;65.50
9425;DHT22;17139;52.140;11.636;2023-07-29T04:18:47;17.10;65.50
9425;DHT22;17139;52.140;11.636;2023-07-29T04:21:14;17.20;66.10
9425;DHT22;17139;52.140;11.636;2023-07-29T04:23:41;17.20;66.00
9425;DHT22;17139;52.140;11.636;2023-07-29T04:26:08;17.20;65.40
9425;DHT22;17139;52.140;11.636;2023-07-29T04:28:35;17.80;66.70
9425;DHT22;17139;52.140;11.636;2023-07-29T04:31:03;17.70;65.40
9425;DHT22;17139;52.140;11.636;2023-07-29T04:33:31;17.60;65.70
9425;DHT22;17139;52.140;11.636;2023-07-29T04:35:58;17.50;65.50
9425;DHT22;17139;52.140;11.636;2023-07-29T04:38:31;17.60;65.50
9425;DHT22;17139;52.140;11.636;2023-07-29T04:40:59;17.60;65.60
9425;DHT22;17139;52.140;11.636;2023-07-29T04:43:27;17.60;65.50
9425;DHT22;17139;52.140;11.636;2023-07-29T04:45:54;17.60;65.60
9425;DHT22;17139;52.140;11.636;2023-07-29T04:48:23;17.60;65.60
9425;DHT22;17139;52.140;11.636;2023-07-29T04:50:50;17.80;66.20
9425;DHT22;17139;52.140;11.636;2023-07-29T04:53:17;17.80;65.50
9425;DHT22;17139;52.140;11.636;2023-07-29T04:55:44;17.90;65.50
9425;DHT22;17139;52.140;11.636;2023-07-29T04:58:11;18.60;66.40
9425;DHT22;17139;52.140;11.636;2023-07-29T05:00:38;18.60;64.90
9425;DHT22;17139;52.140;11.636;2023-07-29T05:03:05;18.60;64.90
9425;DHT22;17139;52.140;11.636;2023-07-29T05:05:33;18.60;64.90
9425;DHT22;17139;52.140;11.636;2023-07-29T05:08:00;18.70;65.10
9425;DHT22;17139;52.140;11.636;2023-07-29T05:10:27;18.80;64.90
9425;DHT22;17139;52.140;11.636;2023-07-29T05:12:54;19.10;64.70
9425;DHT22;17139;52.140;11.636;2023-07-29T05:15:22;19.30;64.60
9425;DHT22;17139;52.140;11.636;2023-07-29T05:17:49;19.60;64.30
9425;DHT22;17139;52.140;11.636;2023-07-29T05:20:16;20.10;64.30
9425;DHT22;17139;52.140;11.636;2023-07-29T05:22:44;20.20;63.30
9425;DHT22;17139;52.140;11.636;2023-07-29T05:25:11;20.30;63.10
9425;DHT22;17139;52.140;11.636;2023-07-29T05:27:38;21.30;62.60
9425;DHT22;17139;52.140;11.636;2023-07-29T05:30:08;21.00;62.10
9425;DHT22;17139;52.140;11.636;2023-07-29T05:32:35;20.90;62.20
9425;DHT22;17139;52.140;11.636;2023-07-29T05:35:02;20.80;62.30
9425;DHT22;17139;52.140;11.636;2023-07-29T05:37:29;20.70;62.60
9425;DHT22;17139;52.140;11.636;2023-07-29T05:39:58;21.30;61.90
9425;DHT22;17139;52.140;11.636;2023-07-29T05:42:25;21.00;62.10
9425;DHT22;17139;52.140;11.636;2023-07-29T05:44:53;20.70;62.50
9425;DHT22;17139;52.140;11.636;2023-07-29T05:47:20;21.30;62.50
9425;DHT22;17139;52.140;11.636;2023-07-29T05:49:47;21.00;62.40
9425;DHT22;17139;52.140;11.636;2023-07-29T05:52:15;20.90;62.90
9425;DHT22;17139;52.140;11.636;2023-07-29T05:54:42;20.70;63.00
9425;DHT22;17139;52.140;11.636;2023-07-29T05:57:11;20.60;63.30
9425;DHT22;17139;52.140;11.636;2023-07-29T05:59:38;20.60;63.30
9425;DHT22;17139;52.140;11.636;2023-07-29T06:02:05;20.70;63.40
9425;DHT22;17139;52.140;11.636;2023-07-29T06:04:32;20.90;63.30
9425;DHT22;17139;52.140;11.636;2023-07-29T06:06:59;21.00;63.10
9425;DHT22;17139;52.140;11.636;2023-07-29T06:09:26;21.10;62.90
9425;DHT22;17139;52.140;11.636;2023-07-29T06:11:53;21.20;62.80
9425;DHT22;17139;52.140;11.636;2023-07-29T06:14:22;21.20;62.80
9425;DHT22;17139;52.140;11.636;2023-07-29T06:16:49;21.20;62.90
9425;DHT22;17139;52.140;11.636;2023-07-29T06:19:16;21.20;63.00
9425;DHT22;17139;52.140;11.636;2023-07-29T06:21:43;21.70;62.40
9425;DHT22;17139;52.140;11.636;2023-07-29T06:24:10;21.80;63.10
9425;DHT22;17139;52.140;11.636;2023-07-29T06:26:37;22.10;63.40
9425;DHT22;17139;52.140;11.636;2023-07-29T06:29:04;22.50;63.20
9425;DHT22;17139;52.140;11.636;2023-07-29T06:31:32;22.80;62.60
9425;DHT22;17139;52.140;11.636;2023-07-29T06:33:59;23.10;61.80
9425;DHT22;17139;52.140;11.636;2023-07-29T06:36:26;23.20;61.50
9425;DHT22;17139;52.140;11.636;2023-07-29T06:38:53;23.30;61.30
9425;DHT22;17139;52.140;11.636;2023-07-29T06:41:20;23.30;60.90
9425;DHT22;17139;52.140;11.636;2023-07-29T06:43:47;23.60;60.10
9425;DHT22;17139;52.140;11.636;2023-07-29T06:46:14;23.70;60.30
9425;DHT22;17139;52.140;11.636;2023-07-29T06:48:43;23.70;60.20
9425;DHT22;17139;52.140;11.636;2023-07-29T06:51:10;24.70;57.20
9425;DHT22;17139;52.140;11.636;2023-07-29T06:53:37;24.60;57.00
9425;DHT22;17139;52.140;11.636;2023-07-29T06:56:04;24.20;58.00
9425;DHT22;17139;52.140;11.636;2023-07-29T06:58:31;23.90;58.80
9425;DHT22;17139;52.140;11.636;2023-07-29T07:00:58;23.80;59.20
9425;DHT22;17139;52.140;11.636;2023-07-29T07:03:25;23.80;59.30
9425;DHT22;17139;52.140;11.636;2023-07-29T07:05:54;23.70;59.40
9425;DHT22;17139;52.140;11.636;2023-07-29T07:08:21;23.70;59.30
9425;DHT22;17139;52.140;11.636;2023-07-29T07:10:48;24.30;57.00
9425;DHT22;17139;52.140;11.636;2023-07-29T07:13:15;23.80;58.10
9425;DHT22;17139;52.140;11.636;2023-07-29T07:15:42;23.80;57.60
9425;DHT22;17139;52.140;11.636;2023-07-29T07:18:09;23.30;58.60
9425;DHT22;17139;52.140;11.636;2023-07-29T07:20:36;22.90;59.60
9425;DHT22;17139;52.140;11.636;2023-07-29T07:23:04;22.60;60.50
9425;DHT22;17139;52.140;11.636;2023-07-29T07:25:36;22.30;61.10
9425;DHT22;17139;52.140;11.636;2023-07-29T07:28:03;22.20;61.90
9425;DHT22;17139;52.140;11.636;2023-07-29T07:30:30;22.00;62.10
9425;DHT22;17139;52.140;11.636;2023-07-29T07:32:57;22.00;62.70
9425;DHT22;17139;52.140;11.636;2023-07-29T07:35:24;22.00;62.90
9425;DHT22;17139;52.140;11.636;2023-07-29T07:37:51;22.50;63.40
9425;DHT22;17139;52.140;11.636;2023-07-29T07:40:20;22.40;62.30
9425;DHT22;17139;52.140;11.636;2023-07-29T07:42:47;22.40;62.40
9425;DHT22;17139;52.140;11.636;2023-07-29T07:45:14;23.10;62.40
9425;DHT22;17139;52.140;11.636;2023-07-29T07:47:41;22.90;62.00
9425;DHT22;17139;52.140;11.636;2023-07-29T07:50:08;22.80;62.10
9425;DHT22;17139;52.140;11.636;2023-07-29T07:52:35;22.70;62.20
9425;DHT22;17139;52.140;11.636;2023-07-29T07:55:03;22.60;62.50
9425;DHT22;17139;52.140;11.636;2023-07-29T07:57:31;22.50;62.40
9425;DHT22;17139;52.140;11.636;2023-07-29T07:59:58;22.40;62.50
9425;DHT22;17139;52.140;11.636;2023-07-29T08:02:25;22.30;62.80
9425;DHT22;17139;52.140;11.636;2023-07-29T08:04:52;22.20;63.00
9425;DHT22;17139;52.140;11.636;2023-07-29T08:07:19;22.60;63.00
9425;DHT22;17139;52.140;11.636;2023-07-29T08:09:46;22.30;62.60
9425;DHT22;17139;52.140;11.636;2023-07-29T08:12:13;22.10;63.20
9425;DHT22;17139;52.140;11.636;2023-07-29T08:14:41;22.80;62.60
9425;DHT22;17139;52.140;11.636;2023-07-29T08:17:08;22.50;62.50
9425;DHT22;17139;52.140;11.636;2023-07-29T08:19:35;22.20;63.10
9425;DHT22;17139;52.140;11.636;2023-07-29T08:22:03;22.10;63.40
9425;DHT22;17139;52.140;11.636;2023-07-29T08:24:30;21.90;63.60
9425;DHT22;17139;52.140;11.636;2023-07-29T08:26:56;22.60;63.30
9425;DHT22;17139;52.140;11.636;2023-07-29T08:29:23;22.90;62.70
9425;DHT22;17139;52.140;11.636;2023-07-29T08:31:52;23.00;62.70
9425;DHT22;17139;52.140;11.636;2023-07-29T08:34:20;22.60;63.10
9425;DHT22;17139;52.140;11.636;2023-07-29T08:36:48;22.40;64.00
9425;DHT22;17139;52.140;11.636;2023-07-29T08:39:15;22.30;64.10
9425;DHT22;17139;52.140;11.636;2023-07-29T08:41:48;22.30;64.50
9425;DHT22;17139;52.140;11.636;2023-07-29T08:44:20;22.40;64.30
9425;DHT22;17139;52.140;11.636;2023-07-29T08:46:49;22.30;63.90
9425;DHT22;17139;52.140;11.636;2023-07-29T08:49:18;22.60;64.50
9425;DHT22;17139;52.140;11.636;2023-07-29T08:51:46;22.30;63.90
9425;DHT22;17139;52.140;11.636;2023-07-29T08:54:15;22.00;64.30
9425;DHT22;17139;52.140;11.636;2023-07-29T08:56:42;21.80;64.80
9425;DHT22;17139;52.140;11.636;2023-07-29T08:59:10;21.60;65.10
9425;DHT22;17139;52.140;11.636;2023-07-29T09:01:37;21.50;65.40
9425;DHT22;17139;52.140;11.636;2023-07-29T09:04:04;21.40;65.60
9425;DHT22;17139;52.140;11.636;2023-07-29T09:06:33;21.20;65.70
9425;DHT22;17139;52.140;11.636;2023-07-29T09:09:01;21.10;65.90
9425;DHT22;17139;52.140;11.636;2023-07-29T09:11:29;21.00;66.20
9425;DHT22;17139;52.140;11.636;2023-07-29T09:13:56;20.80;66.10
9425;DHT22;17139;52.140;11.636;2023-07-29T09:16:23;21.40;66.70
9425;DHT22;17139;52.140;11.636;2023-07-29T09:18:51;21.00;66.10
9425;DHT22;17139;52.140;11.636;2023-07-29T09:21:20;20.80;67.10
9425;DHT22;17139;52.140;11.636;2023-07-29T09:23:51;20.60;66.90
9425;DHT22;17139;52.140;11.636;2023-07-29T09:26:22;20.40;67.10
9425;DHT22;17139;52.140;11.636;2023-07-29T09:28:52;20.30;67.30
9425;DHT22;17139;52.140;11.636;2023-07-29T09:31:20;20.10;67.40
9425;DHT22;17139;52.140;11.636;2023-07-29T09:33:48;20.00;67.60
9425;DHT22;17139;52.140;11.636;2023-07-29T09:36:15;20.00;67.70
9425;DHT22;17139;52.140;11.636;2023-07-29T09:38:43;19.90;67.70
9425;DHT22;17139;52.140;11.636;2023-07-29T09:41:13;19.90;68.00
9425;DHT22;17139;52.140;11.636;2023-07-29T09:43:42;19.80;67.70
9425;DHT22;17139;52.140;11.636;2023-07-29T09:46:09;19.90;68.10
9425;DHT22;17139;52.140;11.636;2023-07-29T09:48:38;19.80;67.50
9425;DHT22;17139;52.140;11.636;2023-07-29T09:51:12;19.60;67.50
9425;DHT22;17139;52.140;11.636;2023-07-29T09:53:41;19.60;67.90
9425;DHT22;17139;52.140;11.636;2023-07-29T09:56:08;19.50;67.90
9425;DHT22;17139;52.140;11.636;2023-07-29T09:58:38;19.50;67.90
9425;DHT22;17139;52.140;11.636;2023-07-29T10:01:06;19.50;68.00
9425;DHT22;17139;52.140;11.636;2023-07-29T10:03:33;19.60;68.00
9425;DHT22;17139;52.140;11.636;2023-07-29T10:06:02;19.80;67.90
9425;DHT22;17139;52.140;11.636;2023-07-29T10:08:30;19.90;67.40
9425;DHT22;17139;52.140;11.636;2023-07-29T10:10:59;20.00;67.10
9425;DHT22;17139;52.140;11.636;2023-07-29T10:13:27;20.90;67.00
9425;DHT22;17139;52.140;11.636;2023-07-29T10:15:55;20.80;65.70
9425;DHT22;17139;52.140;11.636;2023-07-29T10:18:23;20.80;65.80
9425;DHT22;17139;52.140;11.636;2023-07-29T10:20:51;21.00;65.90
9425;DHT22;17139;52.140;11.636;2023-07-29T10:23:21;21.10;65.70
9425;DHT22;17139;52.140;11.636;2023-07-29T10:25:52;21.30;65.30
9425;DHT22;17139;52.140;11.636;2023-07-29T10:28:25;21.50;65.10
9425;DHT22;17139;52.140;11.636;2023-07-29T10:30:52;21.70;64.80
9425;DHT22;17139;52.140;11.636;2023-07-29T10:33:21;22.10;64.10
9425;DHT22;17139;52.140;11.636;2023-07-29T10:35:49;22.20;63.60
9425;DHT22;17139;52.140;11.636;2023-07-29T10:38:16;22.30;63.80
9425;DHT22;17139;52.140;11.636;2023-07-29T10:40:45;22.40;63.60
9425;DHT22;17139;52.140;11.636;2023-07-29T10:43:15;22.50;63.30
9425;DHT22;17139;52.140;11.636;2023-07-29T10:45:45;22.60;63.10
9425;DHT22;17139;52.140;11.636;2023-07-29T10:48:13;22.80;63.10
9425;DHT22;17139;52.140;11.636;2023-07-29T10:51:26;22.90;63.00
9425;DHT22;17139;52.140;11.636;2023-07-29T10:53:56;23.00;62.70
9425;DHT22;17139;52.140;11.636;2023-07-29T10:56:30;22.90;62.70
9425;DHT22;17139;52.140;11.636;2023-07-29T10:59:02;23.00;62.70
9425;DHT22;17139;52.140;11.636;2023-07-29T11:01:51;23.80;61.00
9425;DHT22;17139;52.140;11.636;2023-07-29T11:04:25;23.70;61.40
9425;DHT22;17139;52.140;11.636;2023-07-29T11:07:19;24.50;58.90
9425;DHT22;17139;52.140;11.636;2023-07-29T11:09:57;24.20;60.20
9425;DHT22;17139;52.140;11.636;2023-07-29T11:12:44;24.10;60.80
9425;DHT22;17139;52.140;11.636;2023-07-29T11:15:22;24.10;60.90
9425;DHT22;17139;52.140;11.636;2023-07-29T11:17:51;24.20;60.80
9425;DHT22;17139;52.140;11.636;2023-07-29T11:20:19;24.10;60.80
9425;DHT22;17139;52.140;11.636;2023-07-29T11:22:49;24.10;60.80
9425;DHT22;17139;52.140;11.636;2023-07-29T11:25:18;24.20;61.00
9425;DHT22;17139;52.140;11.636;2023-07-29T11:27:45;24.90;59.20
9425;DHT22;17139;52.140;11.636;2023-07-29T11:30:13;24.80;59.90
9425;DHT22;17139;52.140;11.636;2023-07-29T11:32:42;24.70;60.20
9425;DHT22;17139;52.140;11.636;2023-07-29T11:35:11;25.40;57.60
9425;DHT22;17139;52.140;11.636;2023-07-29T11:37:38;25.20;58.90
9425;DHT22;17139;52.140;11.636;2023-07-29T11:40:08;24.90;59.40
9425;DHT22;17139;52.140;11.636;2023-07-29T11:42:37;24.70;59.80
9425;DHT22;17139;52.140;11.636;2023-07-29T11:45:05;24.40;60.30
9425;DHT22;17139;52.140;11.636;2023-07-29T11:47:33;24.20;60.70
9425;DHT22;17139;52.140;11.636;2023-07-29T11:50:03;24.00;61.20
9425;DHT22;17139;52.140;11.636;2023-07-29T11:52:31;23.80;61.60
9425;DHT22;17139;52.140;11.636;2023-07-29T11:55:00;23.60;61.90
9425;DHT22;17139;52.140;11.636;2023-07-29T11:57:29;24.20;59.50
9425;DHT22;17139;52.140;11.636;2023-07-29T11:59:56;23.80;60.70
9425;DHT22;17139;52.140;11.636;2023-07-29T12:02:24;23.70;61.10
9425;DHT22;17139;52.140;11.636;2023-07-29T12:04:52;23.40;61.90
9425;DHT22;17139;52.140;11.636;2023-07-29T12:07:19;23.10;62.60
9425;DHT22;17139;52.140;11.636;2023-07-29T12:09:47;23.90;60.90
9425;DHT22;17139;52.140;11.636;2023-07-29T12:12:15;23.60;61.40
9425;DHT22;17139;52.140;11.636;2023-07-29T12:14:45;23.60;62.00
9425;DHT22;17139;52.140;11.636;2023-07-29T12:17:13;24.00;61.30
9425;DHT22;17139;52.140;11.636;2023-07-29T12:19:41;24.00;61.40
9425;DHT22;17139;52.140;11.636;2023-07-29T12:22:09;24.10;61.50
9425;DHT22;17139;52.140;11.636;2023-07-29T12:24:38;24.10;61.30
9425;DHT22;17139;52.140;11.636;2023-07-29T12:27:09;24.00;61.30
9425;DHT22;17139;52.140;11.636;2023-07-29T12:29:40;24.00;61.50
9425;DHT22;17139;52.140;11.636;2023-07-29T12:32:10;24.00;61.70
9425;DHT22;17139;52.140;11.636;2023-07-29T12:34:38;24.60;59.00
9425;DHT22;17139;52.140;11.636;2023-07-29T12:37:06;24.30;60.00
9425;DHT22;17139;52.140;11.636;2023-07-29T12:39:34;24.90;58.60
9425;DHT22;17139;52.140;11.636;2023-07-29T12:42:03;24.60;59.00
9425;DHT22;17139;52.140;11.636;2023-07-29T12:44:31;24.40;59.80
9425;DHT22;17139;52.140;11.636;2023-07-29T12:47:00;24.20;60.20
9425;DHT22;17139;52.140;11.636;2023-07-29T12:49:28;24.10;60.30
9425;DHT22;17139;52.140;11.636;2023-07-29T12:51:56;24.00;60.50
9425;DHT22;17139;52.140;11.636;2023-07-29T12:54:23;23.90;60.80
9425;DHT22;17139;52.140;11.636;2023-07-29T12:56:50;23.90;61.00
9425;DHT22;17139;52.140;11.636;2023-07-29T12:59:17;23.90;61.00
9425;DHT22;17139;52.140;11.636;2023-07-29T13:01:44;24.80;58.50
9425;DHT22;17139;52.140;11.636;2023-07-29T13:04:11;24.50;59.10
9425;DHT22;17139;52.140;11.636;2023-07-29T13:06:40;24.80;58.80
9425;DHT22;17139;52.140;11.636;2023-07-29T13:09:07;24.60;59.40
9425;DHT22;17139;52.140;11.636;2023-07-29T13:11:35;24.40;59.40
9425;DHT22;17139;52.140;11.636;2023-07-29T13:14:02;24.40;59.60
9425;DHT22;17139;52.140;11.636;2023-07-29T13:16:29;24.30;59.80
9425;DHT22;17139;52.140;11.636;2023-07-29T13:18:56;24.20;60.00
9425;DHT22;17139;52.140;11.636;2023-07-29T13:21:23;24.10;60.10
9425;DHT22;17139;52.140;11.636;2023-07-29T13:23:52;23.90;60.10
9425;DHT22;17139;52.140;11.636;2023-07-29T13:26:19;24.50;57.50
9425;DHT22;17139;52.140;11.636;2023-07-29T13:28:46;24.10;59.20
9425;DHT22;17139;52.140;11.636;2023-07-29T13:31:13;24.10;58.40
9425;DHT22;17139;52.140;11.636;2023-07-29T13:33:40;24.00;59.30
9425;DHT22;17139;52.140;11.636;2023-07-29T13:36:07;23.90;59.30
9425;DHT22;17139;52.140;11.636;2023-07-29T13:38:34;23.90;59.40
9425;DHT22;17139;52.140;11.636;2023-07-29T13:41:03;24.00;59.50
9425;DHT22;17139;52.140;11.636;2023-07-29T13:43:30;24.00;59.50
9425;DHT22;17139;52.140;11.636;2023-07-29T13:45:57;24.00;59.40
9425;DHT22;17139;52.140;11.636;2023-07-29T13:48:24;24.10;59.00
9425;DHT22;17139;52.140;11.636;2023-07-29T13:50:51;24.30;57.00
9425;DHT22;17139;52.140;11.636;2023-07-29T13:53:18;24.30;58.00
9425;DHT22;17139;52.140;11.636;2023-07-29T13:55:45;24.20;58.20
9425;DHT22;17139;52.140;11.636;2023-07-29T13:58:13;24.90;54.60
9425;DHT22;17139;52.140;11.636;2023-07-29T14:00:40;24.60;56.20
9425;DHT22;17139;52.140;11.636;2023-07-29T14:03:07;24.30;57.20
9425;DHT22;17139;52.140;11.636;2023-07-29T14:05:34;24.20;57.60
9425;DHT22;17139;52.140;11.636;2023-07-29T14:08:01;24.10;57.60
9425;DHT22;17139;52.140;11.636;2023-07-29T14:10:28;24.10;57.50
9425;DHT22;17139;52.140;11.636;2023-07-29T14:12:55;24.10;57.50
9425;DHT22;17139;52.140;11.636;2023-07-29T14:15:24;24.10;57.50
9425;DHT22;17139;52.140;11.636;2023-07-29T14:17:51;24.60;55.00
9425;DHT22;17139;52.140;11.636;2023-07-29T14:20:18;24.50;56.40
9425;DHT22;17139;52.140;11.636;2023-07-29T14:22:45;24.50;56.70
9425;DHT22;17139;52.140;11.636;2023-07-29T14:25:12;25.10;53.30
9425;DHT22;17139;52.140;11.636;2023-07-29T14:27:40;24.90;55.10
9425;DHT22;17139;52.140;11.636;2023-07-29T14:30:08;24.90;55.10
9425;DHT22;17139;52.140;11.636;2023-07-29T14:32:37;24.90;54.60
9425;DHT22;17139;52.140;11.636;2023-07-29T14:35:04;24.90;54.90
9425;DHT22;17139;52.140;11.636;2023-07-29T14:37:32;24.80;54.80
9425;DHT22;17139;52.140;11.636;2023-07-29T14:39:59;24.80;54.80
9425;DHT22;17139;52.140;11.636;2023-07-29T14:42:26;25.30;51.00
9425;DHT22;17139;52.140;11.636;2023-07-29T14:44:54;25.60;50.40
9425;DHT22;17139;52.140;11.636;2023-07-29T14:47:21;25.30;52.70
9425;DHT22;17139;52.140;11.636;2023-07-29T14:49:49;25.90;49.90
9425;DHT22;17139;52.140;11.636;2023-07-29T14:52:16;25.70;51.40
9425;DHT22;17139;52.140;11.636;2023-07-29T14:54:43;25.50;52.70
9425;DHT22;17139;52.140;11.636;2023-07-29T14:57:10;25.50;53.20
9425;DHT22;17139;52.140;11.636;2023-07-29T14:59:37;25.40;53.20
9425;DHT22;17139;52.140;11.636;2023-07-29T15:02:05;25.40;53.70
9425;DHT22;17139;52.140;11.636;2023-07-29T15:04:32;25.80;52.00
9425;DHT22;17139;52.140;11.636;2023-07-29T15:07:02;25.60;53.10
9425;DHT22;17139;52.140;11.636;2023-07-29T15:09:29;25.60;52.20
9425;DHT22;17139;52.140;11.636;2023-07-29T15:11:56;25.40;53.40
9425;DHT22;17139;52.140;11.636;2023-07-29T15:14:23;25.20;53.40
9425;DHT22;17139;52.140;11.636;2023-07-29T15:16:50;25.10;53.70
9425;DHT22;17139;52.140;11.636;2023-07-29T15:19:17;25.00;53.80
9425;DHT22;17139;52.140;11.636;2023-07-29T15:21:44;25.00;54.00
9425;DHT22;17139;52.140;11.636;2023-07-29T15:24:13;24.90;53.50
9425;DHT22;17139;52.140;11.636;2023-07-29T15:26:40;25.30;50.30
9425;DHT22;17139;52.140;11.636;2023-07-29T15:29:08;25.10;52.40
9425;DHT22;17139;52.140;11.636;2023-07-29T15:31:35;24.90;52.40
9425;DHT22;17139;52.140;11.636;2023-07-29T15:34:02;24.80;53.30
9425;DHT22;17139;52.140;11.636;2023-07-29T15:36:29;24.70;53.50
9425;DHT22;17139;52.140;11.636;2023-07-29T15:38:56;24.60;53.30